Decoded Metar for LFOH (LE HAVRE in FRANCE) (IATA:LEH) | Meteo·Mobile Aviation Weather
aviador You're here:

LFOH Decoded Metar

LE HAVRE in FRANCE
Report Time2018-10-17 04:00:00
UTC Time2018-10-17 04:08:39
Flight Rules lifr LIFR
Wind160° at 04 kt
W.Decomp.*RWY 22: 2.1 kt HW 3.4 kt LCW
W.Rank160° ranks 31
Current wind is below 160° avg. (7.4)
Visibility5000 m
Phenomena:Mist
Clouds:Broken 002 Hf
Expected CloudBase > 400 ft AGL from Temp-Dew spread
Ceiling200 ft
Temp14°C (ISA -0)
Dew Point13°C (94% RH)
AAT13.5°C
QNH1018 hPa
Density Alt331 ft
Elevation338 ft
Report Wrong Elevation
Raw Report
METAR LFOH 170400Z AUTO 16004KT 5000 BR BKN002 14/13 Q1018=

Extra information for LFOH:More info

Metar Taf Metar & Taf Last 4 Metars F.Rules Stats Wind Profile Meteogram Temp Stats Airport Information Weather charts Add Link Nearby VenuesMetar ALERT Operation Metar Decoded Social comments